Startpagina
METAR-TAF:

METAR-TAF

Vliegvelden :

Brussels South Charleroi Airport

Charleroi, België

breedte: 50-28N, lengte: 004-27E, hoogte: 187 m

Actueel weer

Dit bericht is 38 minuten geleden gemaakt, om 21:20 UTC
Wind 3 kt uit het zuidzuidwesten, variërend tussen het zuidzuidoosten en het zuidwesten
Temperatuur 21°C
Vochtigheid 60%
Druk 1014 hPa
Zicht 10 km of meer
geen wolken onder 1500 m en geen cumulonimbus

METAR: EBCI 162120Z 20003KT 150V220 CAVOK 21/13 Q1014 NOSIG

Tijdstip: 23:58 (21:58 UTC)

Verwachting

Dit bericht is 4 uur en het 58 minuten geleden gemaakt, om 17:00 UTC
Verwachting geldig van 16 om 18 UTC tot 17 om 23 UTC
Wind 6 kt uit het westen
Zicht 10 km of meer
geen wolken onder 1500 m en geen cumulonimbus
Kans 30%
van 16 om 18 UTC tot 16 om 24 UTC
Wind 15 kt uit variabele richting met uitschieters tot 25 kt
onweer, lichte regen

TAF: EBCI 161700Z 1618/1723 28006KT CAVOK PROB30 1618/1624 VRB15G25KT -TSRA

Waarnemingen en weersverwachtingen van meer dan 4000 vliegvelden (METAR en TAF).

De beschikbare stations zijn de gele en rode punten op de kaart.

Ga met uw muis naar het station om de naam te zien.

Klik dan om waarnemingen en weersverwachtingen te zien.

kaart wijzigen: klik op de groene knoppen met een zwart kruis om in te zoomen, op de groene knop met een streepje om uit te zoomen of op de groene pijlen voor aangrenzende kaarten.


METAR-TAF: